createdAt,value
2019-02-12T00:00:10.525Z,16.27
2019-02-12T00:53:39.800Z,12.73
2019-02-12T01:13:00.390Z,11.93
2019-02-12T01:16:26.921Z,9.17
2019-02-12T01:39:15.408Z,15.27
2019-02-12T01:47:00.940Z,15.60
2019-02-12T01:54:45.659Z,18.60
2019-02-12T02:15:31.885Z,16.07
2019-02-12T02:17:20.548Z,14.00
2019-02-12T02:21:04.039Z,14.83
2019-02-12T02:24:05.119Z,20.50
2019-02-12T02:50:07.391Z,21.83
2019-02-12T03:06:51.653Z,17.60
2019-02-12T03:08:25.307Z,17.80
2019-02-12T03:11:19.338Z,16.50
2019-02-12T03:22:29.074Z,17.80
2019-02-12T03:23:02.002Z,12.30
2019-02-12T03:26:04.855Z,10.13
2019-02-12T03:29:14.788Z,22.40
2019-02-12T03:35:12.115Z,12.43
2019-02-12T03:37:42.708Z,12.43
2019-02-12T03:43:33.900Z,6.73
2019-02-12T03:46:26.791Z,13.77
2019-02-12T03:49:41.194Z,15.33
2019-02-12T03:52:38.703Z,10.13
2019-02-12T03:59:02.090Z,12.17
2019-02-12T04:02:09.554Z,7.43
2019-02-12T04:05:36.691Z,14.13
2019-02-12T04:08:15.397Z,11.43
2019-02-12T04:10:54.690Z,13.37
2019-02-12T04:13:39.789Z,12.57
2019-02-12T04:16:23.704Z,16.93
2019-02-12T04:19:12.883Z,10.40
2019-02-12T04:21:58.107Z,10.47
2019-02-12T04:28:15.890Z,15.67
2019-02-12T04:31:32.266Z,9.73
2019-02-12T04:38:17.264Z,15.60
2019-02-12T04:49:15.952Z,18.73
2019-02-12T05:07:14.669Z,11.93
2019-02-12T05:18:12.221Z,17.20
2019-02-12T05:25:23.219Z,18.83
2019-02-12T05:32:08.066Z,22.67
2019-02-12T05:41:59.565Z,19.20
2019-02-12T05:45:04.932Z,20.53
2019-02-12T05:48:13.802Z,12.27
2019-02-12T05:54:32.053Z,18.73
2019-02-12T05:57:30.410Z,13.40
2019-02-12T06:00:29.277Z,13.43
2019-02-12T06:11:07.469Z,20.00
2019-02-12T06:14:51.600Z,9.67
2019-02-12T06:32:28.253Z,11.37
2019-02-12T06:41:45.294Z,18.47
2019-02-12T06:44:58.517Z,12.67
2019-02-12T06:51:39.842Z,18.40
2019-02-12T06:54:46.893Z,17.93
2019-02-12T06:58:18.851Z,15.43
2019-02-12T07:01:50.966Z,17.13
2019-02-12T07:04:38.389Z,11.73
2019-02-12T07:07:59.851Z,16.40
2019-02-12T07:11:09.094Z,14.93
2019-02-12T07:19:43.178Z,15.40
2019-02-12T07:29:53.096Z,15.03
2019-02-12T07:36:54.789Z,15.70
2019-02-12T07:38:27.178Z,22.27
2019-02-12T07:40:52.075Z,19.67
2019-02-12T07:43:58.914Z,20.77
2019-02-12T08:14:05.829Z,19.43
2019-02-12T08:17:14.562Z,21.07
2019-02-12T08:20:23.666Z,18.07
2019-02-12T08:23:44.549Z,19.57
2019-02-12T08:26:51.808Z,17.93
2019-02-12T08:29:53.148Z,18.03
2019-02-12T08:36:19.167Z,17.00
2019-02-12T08:39:25.090Z,13.13
2019-02-12T08:42:29.934Z,17.83
2019-02-12T08:45:45.071Z,17.60
2019-02-12T08:49:03.477Z,16.90
2019-02-12T08:52:25.751Z,17.03
2019-02-12T08:57:10.715Z,18.70
2019-02-12T08:59:02.734Z,16.93
2019-02-12T09:06:23.280Z,17.70
2019-02-12T09:13:36.602Z,14.20
2019-02-12T09:24:41.666Z,12.87
2019-02-12T09:27:31.077Z,14.57
2019-02-12T09:30:23.404Z,13.20
2019-02-12T09:33:17.837Z,14.87
2019-02-12T09:35:57.113Z,15.40
2019-02-12T09:38:58.869Z,18.33
2019-02-12T09:41:48.635Z,22.40
2019-02-12T09:44:55.029Z,16.20
2019-02-12T09:48:14.360Z,16.80
2019-02-12T09:51:14.976Z,17.43
2019-02-12T09:54:24.416Z,15.17
2019-02-12T09:57:16.671Z,14.93
2019-02-12T10:00:16.463Z,14.20
2019-02-12T10:03:26.129Z,13.20
2019-02-12T10:06:36.499Z,14.70
2019-02-12T10:09:41.599Z,14.90
2019-02-12T10:12:52.045Z,13.33
2019-02-12T10:16:01.161Z,11.60
2019-02-12T10:19:12.757Z,12.10
2019-02-12T10:22:32.067Z,12.67
2019-02-12T10:25:26.720Z,13.07
2019-02-12T10:28:48.620Z,14.17
2019-02-12T10:31:21.109Z,11.90
2019-02-12T10:33:53.072Z,12.03
2019-02-12T10:36:22.031Z,13.57
2019-02-12T10:38:56.009Z,10.70
2019-02-12T10:41:26.077Z,13.60
2019-02-12T10:44:03.424Z,11.80
2019-02-12T10:46:37.003Z,10.20
2019-02-12T10:49:10.715Z,10.10
2019-02-12T10:51:38.693Z,7.70
2019-02-12T10:54:07.757Z,8.03
2019-02-12T10:56:36.970Z,9.17
2019-02-12T10:59:09.301Z,9.13
2019-02-12T11:01:38.438Z,6.53
2019-02-12T11:04:09.956Z,7.83
2019-02-12T11:07:31.890Z,9.37
2019-02-12T11:10:35.080Z,6.10
2019-02-12T11:13:09.298Z,8.17
2019-02-12T11:15:44.322Z,8.37
2019-02-12T11:18:17.068Z,8.00
2019-02-12T11:20:46.093Z,6.60
2019-02-12T11:23:15.098Z,8.43
2019-02-12T11:25:44.727Z,12.07
2019-02-12T11:28:21.456Z,10.70
2019-02-12T11:30:50.452Z,10.67
2019-02-12T11:33:20.672Z,14.83
2019-02-12T11:35:52.044Z,13.30
2019-02-12T11:38:24.271Z,15.17
2019-02-12T11:41:11.211Z,13.83
2019-02-12T11:44:12.081Z,11.07
2019-02-12T11:47:13.711Z,11.47
2019-02-12T11:53:22.758Z,9.13
2019-02-12T11:56:07.366Z,7.97
2019-02-12T11:58:46.994Z,6.27
2019-02-12T12:01:23.454Z,5.60
2019-02-12T12:06:52.028Z,7.70
2019-02-12T12:09:52.060Z,6.20
2019-02-12T12:17:07.693Z,4.70
2019-02-12T12:37:26.495Z,8.23
2019-02-12T12:40:40.015Z,5.40
2019-02-12T12:43:15.442Z,3.93
2019-02-12T12:45:50.453Z,4.67
2019-02-12T12:48:23.964Z,4.23
2019-02-12T12:51:06.047Z,7.27
2019-02-12T12:53:35.255Z,5.70
2019-02-12T12:56:23.651Z,5.43
2019-02-12T12:58:55.253Z,7.43
2019-02-12T13:01:24.650Z,4.87
2019-02-12T13:03:53.625Z,5.13
2019-02-12T13:06:22.706Z,6.73
2019-02-12T13:08:51.686Z,5.43
2019-02-12T13:11:20.640Z,6.50
2019-02-12T13:13:49.569Z,8.17
2019-02-12T13:16:18.582Z,6.43
2019-02-12T13:18:47.601Z,6.50
2019-02-12T13:21:18.637Z,4.53
2019-02-12T13:23:47.602Z,6.83
2019-02-12T13:26:16.618Z,4.63
2019-02-12T13:28:46.214Z,4.73
2019-02-12T13:31:15.161Z,4.87
2019-02-12T13:33:44.193Z,7.90
2019-02-12T13:36:13.312Z,8.90
2019-02-12T13:38:42.455Z,9.63
2019-02-12T13:41:11.455Z,9.00
2019-02-12T13:43:40.461Z,7.23
2019-02-12T13:46:09.489Z,7.97
2019-02-12T13:48:38.417Z,7.37
2019-02-12T13:51:07.370Z,7.87
2019-02-12T13:53:36.358Z,7.37
2019-02-12T13:56:05.460Z,6.80
2019-02-12T13:58:34.407Z,7.10
2019-02-12T14:01:03.353Z,9.60
2019-02-12T14:03:32.275Z,6.33
2019-02-12T14:06:01.531Z,9.00
2019-02-12T14:08:30.664Z,7.30
2019-02-12T14:10:59.677Z,6.80
2019-02-12T14:13:28.835Z,9.17
2019-02-12T14:15:57.871Z,10.87
2019-02-12T14:18:27.469Z,8.73
2019-02-12T14:21:02.107Z,10.67
2019-02-12T14:23:34.166Z,9.87
2019-02-12T14:26:03.665Z,10.93
2019-02-12T14:28:34.091Z,10.17
2019-02-12T14:31:03.117Z,10.40
2019-02-12T14:33:32.246Z,10.47
2019-02-12T14:36:01.518Z,12.03
2019-02-12T14:38:30.470Z,9.70
2019-02-12T14:40:59.466Z,14.70
2019-02-12T14:43:28.418Z,12.50
2019-02-12T14:45:57.285Z,7.27
2019-02-12T14:48:26.338Z,8.93
2019-02-12T14:50:55.472Z,8.67
2019-02-12T14:53:24.337Z,12.03
2019-02-12T14:55:53.454Z,7.97
2019-02-12T14:58:22.392Z,6.93
2019-02-12T15:00:51.329Z,9.47
2019-02-12T15:03:20.295Z,7.73
2019-02-12T15:05:49.319Z,9.83
2019-02-12T15:08:18.261Z,5.10
2019-02-12T15:10:47.306Z,7.27
2019-02-12T15:13:16.205Z,7.40
2019-02-12T15:15:45.166Z,8.83
2019-02-12T15:18:15.951Z,8.57
2019-02-12T15:20:44.967Z,9.13
2019-02-12T15:23:13.917Z,8.87
2019-02-12T15:25:43.132Z,8.23
2019-02-12T15:28:15.657Z,6.77
2019-02-12T15:30:44.746Z,6.90
2019-02-12T15:33:13.705Z,7.93
2019-02-12T15:35:42.728Z,8.77
2019-02-12T15:38:14.640Z,11.73
2019-02-12T15:40:43.706Z,8.87
2019-02-12T15:43:12.747Z,10.13
2019-02-12T15:45:41.875Z,6.83
2019-02-12T15:48:10.980Z,6.97
2019-02-12T15:50:39.896Z,8.17
2019-02-12T15:53:08.928Z,4.83
2019-02-12T15:55:42.320Z,5.67
2019-02-12T15:58:10.952Z,5.47
2019-02-12T16:00:41.457Z,6.90
2019-02-12T16:03:10.889Z,7.07
2019-02-12T16:05:39.889Z,8.20
2019-02-12T16:08:09.274Z,6.93
2019-02-12T16:10:40.145Z,7.37
2019-02-12T16:13:09.876Z,5.20
2019-02-12T16:15:39.974Z,9.13
2019-02-12T16:18:13.790Z,5.50
2019-02-12T16:20:42.885Z,6.97
2019-02-12T16:23:12.095Z,6.73
2019-02-12T16:25:41.046Z,6.90
2019-02-12T16:28:10.157Z,6.63
2019-02-12T16:30:39.246Z,5.53
2019-02-12T16:33:08.289Z,6.53
2019-02-12T16:35:38.275Z,6.00
2019-02-12T16:38:07.344Z,6.13
2019-02-12T16:40:36.925Z,5.37
2019-02-12T16:43:06.938Z,4.93
2019-02-12T16:45:40.134Z,10.40
2019-02-12T16:48:09.087Z,6.20
2019-02-12T16:50:39.605Z,4.03
2019-02-12T16:53:08.606Z,6.53
2019-02-12T16:55:37.566Z,7.53
2019-02-12T16:58:06.562Z,6.03
2019-02-12T17:00:35.554Z,9.20
2019-02-12T17:03:04.821Z,11.37
2019-02-12T17:05:33.919Z,5.90
2019-02-12T17:08:03.486Z,6.97
2019-02-12T17:10:32.400Z,8.87
2019-02-12T17:13:01.359Z,5.97
2019-02-12T17:15:30.414Z,6.63
2019-02-12T17:17:59.455Z,7.43
2019-02-12T17:20:28.472Z,9.13
2019-02-12T17:22:58.991Z,5.43
2019-02-12T17:25:27.934Z,7.40
2019-02-12T17:27:56.877Z,12.20
2019-02-12T17:30:25.853Z,8.87
2019-02-12T17:32:54.794Z,6.00
2019-02-12T17:35:23.805Z,12.90
2019-02-12T17:37:52.793Z,17.67
2019-02-12T17:40:21.745Z,7.53
2019-02-12T17:42:50.789Z,11.33
2019-02-12T17:45:19.927Z,9.57
2019-02-12T17:47:49.045Z,16.50
2019-02-12T17:50:18.009Z,12.47
2019-02-12T17:52:47.095Z,9.33
2019-02-12T17:55:16.057Z,10.47
2019-02-12T17:57:44.990Z,10.13
2019-02-12T18:00:16.943Z,10.03
2019-02-12T18:02:46.049Z,12.83
2019-02-12T18:05:15.009Z,11.17
2019-02-12T18:07:43.900Z,8.20
2019-02-12T18:10:12.970Z,12.03
2019-02-12T18:12:41.897Z,12.00
2019-02-12T18:15:11.226Z,10.83
2019-02-12T18:17:40.281Z,13.07
2019-02-12T18:20:09.688Z,9.33
2019-02-12T18:22:39.433Z,12.40
2019-02-12T18:25:09.205Z,9.60
2019-02-12T18:27:38.246Z,8.30
2019-02-12T18:30:09.697Z,10.13
2019-02-12T18:32:38.821Z,10.23
2019-02-12T18:35:07.952Z,12.43
2019-02-12T18:37:37.168Z,6.83
2019-02-12T18:40:06.554Z,8.53
2019-02-12T18:42:35.428Z,8.97
2019-02-12T18:45:04.505Z,9.80
2019-02-12T18:47:33.760Z,15.30
2019-02-12T18:50:02.836Z,9.60
2019-02-12T18:52:31.814Z,9.87
2019-02-12T18:55:00.672Z,13.50
2019-02-12T18:57:29.562Z,12.20
2019-02-12T18:59:58.463Z,8.03
2019-02-12T19:02:27.457Z,10.07
2019-02-12T19:04:56.413Z,6.80
2019-02-12T19:07:25.558Z,10.93
2019-02-12T19:09:55.192Z,10.40
2019-02-12T19:12:24.212Z,7.07
2019-02-12T19:14:53.175Z,8.13
2019-02-12T19:17:22.209Z,7.77
2019-02-12T19:19:51.223Z,10.40
2019-02-12T19:22:20.479Z,6.07
2019-02-12T19:24:49.488Z,11.73
2019-02-12T19:27:18.433Z,6.90
2019-02-12T19:29:47.296Z,8.33
2019-02-12T19:32:16.771Z,10.13
2019-02-12T19:34:45.766Z,8.43
2019-02-12T19:37:15.101Z,8.97
2019-02-12T19:39:44.090Z,7.60
2019-02-12T19:42:13.090Z,13.93
2019-02-12T19:44:42.029Z,8.87
2019-02-12T19:47:11.104Z,9.80
2019-02-12T19:49:40.050Z,9.13
2019-02-12T19:52:09.045Z,7.13
2019-02-12T19:54:37.994Z,11.63
2019-02-12T19:57:07.052Z,11.37
2019-02-12T19:59:36.490Z,8.70
2019-02-12T20:02:05.689Z,9.67
2019-02-12T20:04:34.722Z,11.37
2019-02-12T20:07:06.784Z,13.97
2019-02-12T20:09:35.845Z,12.90
2019-02-12T20:12:05.038Z,11.17
2019-02-12T20:14:34.055Z,8.03
2019-02-12T20:17:03.327Z,14.47
2019-02-12T20:19:32.285Z,9.07
2019-02-12T20:22:01.481Z,11.23
2019-02-12T20:24:32.221Z,10.43
2019-02-12T20:27:06.415Z,8.63
2019-02-12T20:29:31.888Z,8.97
2019-02-12T20:32:00.901Z,9.63
2019-02-12T20:34:29.877Z,12.00
2019-02-12T20:36:59.031Z,10.47
2019-02-12T20:39:28.145Z,13.13
2019-02-12T20:41:57.129Z,9.67
2019-02-12T20:44:26.178Z,11.27
2019-02-12T20:46:55.381Z,16.10
2019-02-12T20:49:24.293Z,13.77
2019-02-12T20:51:53.301Z,8.90
2019-02-12T20:54:22.355Z,13.47
2019-02-12T20:56:51.381Z,10.90
2019-02-12T20:59:20.406Z,14.00
2019-02-12T21:01:49.460Z,10.97
2019-02-12T21:04:18.452Z,16.37
2019-02-12T21:06:47.576Z,13.20
2019-02-12T21:09:16.526Z,11.70
2019-02-12T21:11:45.441Z,11.27
2019-02-12T21:14:14.501Z,12.63
2019-02-12T21:16:43.531Z,14.53
2019-02-12T21:19:12.482Z,12.30
2019-02-12T21:21:41.453Z,12.03
2019-02-12T21:24:10.707Z,16.07
2019-02-12T21:26:39.793Z,10.57
2019-02-12T21:29:08.965Z,16.00
2019-02-12T21:31:38.231Z,12.67
2019-02-12T21:34:07.667Z,10.63
2019-02-12T21:36:36.675Z,14.87
2019-02-12T21:39:07.788Z,12.93
2019-02-12T21:41:39.693Z,14.47
2019-02-12T21:44:08.679Z,11.97
2019-02-12T21:46:38.461Z,10.97
2019-02-12T21:49:07.339Z,11.87
2019-02-12T21:51:36.470Z,11.87
2019-02-12T21:54:05.529Z,13.37
2019-02-12T21:56:34.567Z,14.07
2019-02-12T21:59:03.586Z,11.97
2019-02-12T22:01:32.529Z,11.10
2019-02-12T22:04:01.416Z,12.53
2019-02-12T22:06:30.369Z,10.70
2019-02-12T22:08:59.308Z,12.10
2019-02-12T22:11:28.262Z,12.13
2019-02-12T22:13:57.317Z,11.70
2019-02-12T22:16:26.457Z,9.63
2019-02-12T22:18:55.481Z,13.47
2019-02-12T22:21:24.604Z,12.27
2019-02-12T22:23:53.624Z,11.83
2019-02-12T22:26:22.652Z,10.50
2019-02-12T22:28:51.632Z,9.43
2019-02-12T22:31:20.561Z,9.63
2019-02-12T22:33:49.648Z,14.47
2019-02-12T22:36:18.609Z,11.97
2019-02-12T22:38:50.394Z,10.87
2019-02-12T22:41:20.092Z,10.67
2019-02-12T22:43:49.339Z,13.43
2019-02-12T22:46:19.972Z,13.10
2019-02-12T22:48:48.978Z,11.77
2019-02-12T22:51:20.700Z,11.20
2019-02-12T22:53:49.670Z,9.97
2019-02-12T22:56:18.665Z,7.80
2019-02-12T22:58:49.905Z,10.27
2019-02-12T23:01:23.161Z,8.93
2019-02-12T23:03:52.189Z,9.50
2019-02-12T23:06:21.085Z,9.23
2019-02-12T23:08:50.208Z,10.20
2019-02-12T23:11:19.421Z,11.90
2019-02-12T23:13:48.371Z,10.60
2019-02-12T23:16:17.316Z,12.13
2019-02-12T23:18:46.251Z,11.70
2019-02-12T23:21:15.247Z,12.20
2019-02-12T23:23:44.221Z,11.50
2019-02-12T23:26:13.286Z,10.43
2019-02-12T23:28:42.315Z,12.77
2019-02-12T23:31:11.361Z,11.80
2019-02-12T23:33:40.467Z,15.87
2019-02-12T23:36:09.417Z,13.00
2019-02-12T23:38:38.363Z,13.20
2019-02-12T23:41:07.563Z,12.60
2019-02-12T23:43:36.994Z,12.27
2019-02-12T23:46:07.572Z,12.20
2019-02-12T23:48:36.534Z,10.43
2019-02-12T23:51:05.557Z,11.67
2019-02-12T23:53:34.593Z,10.40
2019-02-12T23:56:03.685Z,13.20
2019-02-12T23:58:32.825Z,10.53
